Strona główna
METAR-TAF:

METAR-TAF

Lotnisko :

Port lotniczy Singapur-Paya Lebar

Singapur, Singapur

Szerokość geograficzna: 01-22N, Długość geograficzna: 103-55E, wysokość: 18 m

Aktualna obserwacja pogody

Raport powstał 15 minut temu, godzina 05:00 UTC
Wiatr 16 kt od północny wschód
Temperatura 30°C
Wilgotność 62%
Ciśnienie 1011 hPa
Widzialność 10 km lub więcej
Mało chmury na wysokości 2000 ft
Przerywane chmury na wysokości 15000 ft

METAR: WSAP 070500Z 04016KT 9999 FEW020 BKN150 30/22 Q1011

czas: 13:15 (05:15 UTC)

Prognoza

Raport powstał 6 godziny i 15 minut temu, godzina 23:00 UTC
Prognoza ważna od 07 godzina 00 UTC do 08 godzina 06 UTC
Wiatr 13 kt od północno-północny wschód
Widzialność 10 km lub więcej
Mało chmury na wysokości 1500 ft
Rozproszone chmury na wysokości 2000 ft
Przejściowo
od 07 godzina 06 UTC do 07 godzina 10 UTC
Wiatr 15 kt od północny wschód w porywach dochodzący do 25 kt

TAF: WSAP 062300Z 0700/0806 03013KT 9999 FEW015 SCT020 TEMPO 0706/0710 05015G25KT

Obserwacja i prognoza pogody dla ponad 4000 lotnisk (raport METAR i TAF).

Dostępne stacje oznaczono żółtymi i czerwonymi punktami na mapie.

Najedź kursorem aby zobaczyć nazwę stacji.

Kliknij aby zobaczyć obserwacje i prognozy pogody.

Aby zmienić mapę: kliknij na zielony przycisk z czarnym krzyżykiem, aby powiększyć; na zielony przycisk z myślnikiem, aby pomniejszyć; na zielone strzałki, aby przejść do map sąsiednich.


METAR-TAF: